Wilson Algeciras — 9HA2471 — position and weather

sailwx.info

Track history (hours):
 
Tides and Currents Weather Stations Pressure Air Temp Water Temp Dewpoint Dewpoint Depression Visibility Wind Speed Wind Dir Waves Ship Positions

Wilson Algeciras

Last reported at 2017-Nov-25 01:52 UTC. Time now 2017-Nov-25 06:04 UTC.
Position N 41°03' W 008°53'.

Length 88 m; draft 5.1 m.

Type: Ship. MMSI: 248689000.

Date/timePositionNaut miles runAvg speedWind from/ knotsBaromVisibWave heightAir tempDewpointWater temp
2017-Nov-25 01:52N 41°03' W 008°53'2 6.0
2017-Nov-25 01:29N 41°05' W 008°54'3 7.0
2017-Nov-25 01:00N 41°08' W 008°54'  
2017-Nov-20 00:30N 49°22' W 004°33'510.3
2017-Nov-20 00:01N 49°24' W 004°27'710.6
2017-Nov-19 23:24N 49°28' W 004°18'510.5
2017-Nov-19 22:57N 49°30' W 004°12'510.5
2017-Nov-19 22:29N 49°33' W 004°06'15 9.7
2017-Nov-19 20:54N 49°41' W 003°45'45 8.8
2017-Nov-19 15:47N 50°02' W 002°44'2712.4
2017-Nov-19 13:36N 50°09' W 002°03'313.1
2017-Nov-19 13:24N 50°10' W 001°60'512.8
2017-Nov-19 13:00N 50°12' W 001°52'612.2
2017-Nov-19 12:30N 50°13' W 001°43'611.2
2017-Nov-19 12:00N 50°15' W 001°34'510.3
2017-Nov-19 11:30N 50°16' W 001°26'42 7.6
2017-Nov-19 06:01N 50°27' W 000°23'0 9.7
2017-Nov-19 05:59N 50°27' W 000°23'5 9.8
2017-Nov-19 05:30N 50°29' W 000°16'510.3
2017-Nov-19 05:01N 50°30' W 000°08'510.6
2017-Nov-19 04:31N 50°31' W 000°00'610.9
2017-Nov-19 04:00N 50°33' E 000°08'910.9
2017-Nov-19 03:10N 50°35' E 000°22'410.8
2017-Nov-19 02:45N 50°37' E 000°29'310.5
2017-Nov-19 02:30N 50°37' E 000°33'510.2
2017-Nov-19 02:01N 50°40' E 000°40'510.0
2017-Nov-19 01:31N 50°43' E 000°46'5 9.5
2017-Nov-19 01:01N 50°46' E 000°52'5 8.9
2017-Nov-19 00:30N 50°48' E 000°58'6 8.3
2017-Nov-18 23:44N 50°52' E 001°06'3 8.0
2017-Nov-18 23:24N 50°54' E 001°09'3 7.8
2017-Nov-18 23:00N 50°56' E 001°13'4 7.7
2017-Nov-18 22:30N 50°59' E 001°17'4 8.2
2017-Nov-18 22:00N 51°01' E 001°22'5 9.6
2017-Nov-18 21:30N 51°04' E 001°28'611.5
2017-Nov-18 21:01N 51°08' E 001°35'612.2
2017-Nov-18 20:30N 51°12' E 001°43'612.5
2017-Nov-18 20:01N 51°17' E 001°49'612.1
2017-Nov-18 19:31N 51°22' E 001°53'611.7
2017-Nov-18 19:00N 51°28' E 001°56'510.9
2017-Nov-18 18:30N 51°32' E 002°02'510.2
2017-Nov-18 18:00N 51°35' E 002°08'247 7.0
2017-Nov-17 06:55N 53°53' E 007°47'3 6.6
2017-Nov-17 06:28N 53°52' E 007°52'3 6.7
2017-Nov-17 06:00N 53°52' E 007°57'4 7.5
2017-Nov-17 05:30N 53°50' E 008°03'4 8.7
2017-Nov-17 05:00N 53°48' E 008°09'510.0
2017-Nov-17 04:30N 53°44' E 008°15'611.1
2017-Nov-17 04:00N 53°41' E 008°22'611.7
2017-Nov-17 03:30N 53°37' E 008°30'510.5
2017-Nov-17 03:01N 53°32' E 008°34'611.1
2017-Nov-17 02:30N 53°27' E 008°30'612.1
2017-Nov-17 02:01N 53°21' E 008°30'611.3
2017-Nov-17 01:30N 53°16' E 008°29'5 9.7
2017-Nov-17 01:00N 53°11' E 008°32'4 8.3
2017-Nov-17 00:31N 53°09' E 008°38'3 6.8
2017-Nov-17 00:00N 53°07' E 008°43'0 0.4
2017-Nov-16 23:30N 53°07' E 008°43'0 0.2
2017-Nov-16 23:00N 53°07' E 008°43'0 0.0
2017-Nov-16 22:30N 53°07' E 008°43'0 0.0
2017-Nov-16 22:00N 53°07' E 008°43'0 0.0
2017-Nov-16 21:30N 53°07' E 008°43'0 0.0
2017-Nov-16 21:00N 53°07' E 008°43'0 0.0
2017-Nov-16 20:30N 53°07' E 008°43'0 0.0
2017-Nov-16 20:00N 53°07' E 008°43'0 0.0
2017-Nov-16 19:30N 53°07' E 008°43'0 0.0
2017-Nov-16 19:00N 53°07' E 008°43'0 0.0
2017-Nov-16 18:30N 53°07' E 008°43'0 0.0
2017-Nov-16 18:00N 53°07' E 008°43'0 0.0
2017-Nov-16 17:30N 53°07' E 008°43'0 0.0
2017-Nov-16 17:00N 53°07' E 008°43'0 0.0
2017-Nov-16 16:30N 53°07' E 008°43'0 0.0
2017-Nov-16 16:00N 53°07' E 008°43'0 0.0
2017-Nov-16 15:30N 53°07' E 008°43'0 0.0
2017-Nov-16 15:00N 53°07' E 008°43'0 0.0
2017-Nov-16 14:30N 53°07' E 008°43'0 0.0
2017-Nov-16 14:00N 53°07' E 008°43'0 0.0
2017-Nov-16 13:30N 53°07' E 008°43'0 0.0
2017-Nov-16 13:00N 53°07' E 008°43'0 0.0
2017-Nov-16 12:30N 53°07' E 008°43'0 0.0
2017-Nov-16 12:00N 53°07' E 008°43'0 0.0
2017-Nov-16 11:30N 53°07' E 008°43'0 0.0
2017-Nov-16 11:00N 53°07' E 008°43'0 0.0
2017-Nov-16 10:30N 53°07' E 008°43'0 0.0
2017-Nov-16 10:00N 53°07' E 008°43'0 0.0
2017-Nov-16 09:30N 53°07' E 008°43'0 0.0
2017-Nov-16 09:00N 53°07' E 008°43'0 0.0
2017-Nov-16 08:30N 53°07' E 008°43'0 0.0
2017-Nov-16 08:00N 53°07' E 008°43'0 0.0
2017-Nov-16 07:30N 53°07' E 008°43'0 0.0
2017-Nov-16 07:00N 53°07' E 008°43'0 0.0
2017-Nov-16 06:30N 53°07' E 008°43'0 0.0
2017-Nov-16 06:00N 53°07' E 008°43'0 0.0
2017-Nov-16 05:30N 53°07' E 008°43'0 0.0
2017-Nov-16 05:00N 53°07' E 008°43'0 0.0
2017-Nov-16 04:30N 53°07' E 008°43'0 0.0
2017-Nov-16 04:00N 53°07' E 008°43'0 0.0
2017-Nov-16 03:30N 53°07' E 008°43'0 0.0
2017-Nov-16 03:00N 53°07' E 008°43'0 0.0
2017-Nov-16 02:30N 53°07' E 008°43'0 0.0
2017-Nov-16 02:00N 53°07' E 008°43'0 0.0
2017-Nov-16 01:30N 53°07' E 008°43'0 0.0
2017-Nov-16 01:00N 53°07' E 008°43'0 0.0
2017-Nov-16 00:30N 53°07' E 008°43'0 0.0
2017-Nov-16 00:00N 53°07' E 008°43'0 0.5
2017-Nov-15 23:30N 53°07' E 008°43'0 0.6
2017-Nov-15 23:01N 53°07' E 008°42'4 7.1
2017-Nov-15 22:30N 53°09' E 008°38'510.0
2017-Nov-15 22:01N 53°12' E 008°31'611.2
2017-Nov-15 21:31N 53°18' E 008°29'611.2
2017-Nov-15 21:00N 53°23' E 008°30'612.1
2017-Nov-15 20:30N 53°29' E 008°30'3 5.7
2017-Nov-15 20:00N 53°31' E 008°34'0 0.0
2017-Nov-15 19:30N 53°31' E 008°34'0 0.0
2017-Nov-15 19:00N 53°31' E 008°34'0 0.1
2017-Nov-15 18:30N 53°31' E 008°34'0 0.2
2017-Nov-15 18:00N 53°31' E 008°34'0 0.2
2017-Nov-15 17:31N 53°31' E 008°34'0 0.0
2017-Nov-15 17:01N 53°31' E 008°34'0 0.0
2017-Nov-15 16:30N 53°31' E 008°34'0 0.0
2017-Nov-15 16:00N 53°31' E 008°34'0 0.0
2017-Nov-15 15:30N 53°31' E 008°34'0 0.0
2017-Nov-15 15:00N 53°31' E 008°34'0 0.0
2017-Nov-15 14:30N 53°31' E 008°34'0 0.0
2017-Nov-15 14:00N 53°31' E 008°34'0 0.0
2017-Nov-15 13:30N 53°31' E 008°34'0 0.0
2017-Nov-15 13:00N 53°31' E 008°34'0 0.0
2017-Nov-15 12:30N 53°31' E 008°34'0 0.0
2017-Nov-15 12:00N 53°31' E 008°34'0 0.0
2017-Nov-15 11:30N 53°31' E 008°34'0 0.0
2017-Nov-15 11:00N 53°31' E 008°34'0 0.0
2017-Nov-15 10:30N 53°31' E 008°34'0 0.1
2017-Nov-15 10:00N 53°31' E 008°34'0 0.2
2017-Nov-15 09:30N 53°31' E 008°34'0 0.0
2017-Nov-15 09:00N 53°31' E 008°34'0 0.1
2017-Nov-15 08:30N 53°31' E 008°34'0 0.0
2017-Nov-15 08:00N 53°31' E 008°34'0 0.1
2017-Nov-15 07:30N 53°31' E 008°34'0 0.1
2017-Nov-15 07:00N 53°31' E 008°34'0 0.1
2017-Nov-15 06:30N 53°31' E 008°34'0 0.0
2017-Nov-15 06:00N 53°31' E 008°34'0 0.2
2017-Nov-15 05:30N 53°31' E 008°34'0 0.2
2017-Nov-15 05:00N 53°31' E 008°34'0 0.0
2017-Nov-15 04:30N 53°31' E 008°34'0 0.0
2017-Nov-15 04:00N 53°31' E 008°34'0 0.0
2017-Nov-15 03:30N 53°31' E 008°34'0 0.0
2017-Nov-15 03:01N 53°31' E 008°34'0 0.1
2017-Nov-15 02:30N 53°31' E 008°34'3 5.5
2017-Nov-15 02:00N 53°34' E 008°32'  
Track history (hours):
 
Tides and Currents Weather Stations Pressure Air Temp Water Temp Dewpoint Dewpoint Depression Visibility Wind Speed Wind Dir Waves Ship Positions

Wilson Algeciras

Last reported at 2017-Nov-25 01:52 UTC. Time now 2017-Nov-25 06:04 UTC.
Position N 41°03' W 008°53'.

Length 88 m; draft 5.1 m.

Type: Ship. MMSI: 248689000.

Date/timePositionNaut miles runAvg speedWind from/ knotsBaromVisibWave heightAir tempDewpointWater temp
2017-Nov-25 01:52N 41°03' W 008°53'2 6.0
2017-Nov-25 01:29N 41°05' W 008°54'3 7.0
2017-Nov-25 01:00N 41°08' W 008°54'  
2017-Nov-20 00:30N 49°22' W 004°33'510.3
2017-Nov-20 00:01N 49°24' W 004°27'710.6
2017-Nov-19 23:24N 49°28' W 004°18'510.5
2017-Nov-19 22:57N 49°30' W 004°12'510.5
2017-Nov-19 22:29N 49°33' W 004°06'15 9.7
2017-Nov-19 20:54N 49°41' W 003°45'45 8.8
2017-Nov-19 15:47N 50°02' W 002°44'2712.4
2017-Nov-19 13:36N 50°09' W 002°03'313.1
2017-Nov-19 13:24N 50°10' W 001°60'512.8
2017-Nov-19 13:00N 50°12' W 001°52'612.2
2017-Nov-19 12:30N 50°13' W 001°43'611.2
2017-Nov-19 12:00N 50°15' W 001°34'510.3
2017-Nov-19 11:30N 50°16' W 001°26'42 7.6
2017-Nov-19 06:01N 50°27' W 000°23'0 9.7
2017-Nov-19 05:59N 50°27' W 000°23'5 9.8
2017-Nov-19 05:30N 50°29' W 000°16'510.3
2017-Nov-19 05:01N 50°30' W 000°08'510.6
2017-Nov-19 04:31N 50°31' W 000°00'610.9
2017-Nov-19 04:00N 50°33' E 000°08'910.9
2017-Nov-19 03:10N 50°35' E 000°22'410.8
2017-Nov-19 02:45N 50°37' E 000°29'310.5
2017-Nov-19 02:30N 50°37' E 000°33'510.2
2017-Nov-19 02:01N 50°40' E 000°40'510.0
2017-Nov-19 01:31N 50°43' E 000°46'5 9.5
2017-Nov-19 01:01N 50°46' E 000°52'5 8.9
2017-Nov-19 00:30N 50°48' E 000°58'6 8.3
2017-Nov-18 23:44N 50°52' E 001°06'3 8.0
2017-Nov-18 23:24N 50°54' E 001°09'3 7.8
2017-Nov-18 23:00N 50°56' E 001°13'4 7.7
2017-Nov-18 22:30N 50°59' E 001°17'4 8.2
2017-Nov-18 22:00N 51°01' E 001°22'5 9.6
2017-Nov-18 21:30N 51°04' E 001°28'611.5
2017-Nov-18 21:01N 51°08' E 001°35'612.2
2017-Nov-18 20:30N 51°12' E 001°43'612.5
2017-Nov-18 20:01N 51°17' E 001°49'612.1
2017-Nov-18 19:31N 51°22' E 001°53'611.7
2017-Nov-18 19:00N 51°28' E 001°56'510.9
2017-Nov-18 18:30N 51°32' E 002°02'510.2
2017-Nov-18 18:00N 51°35' E 002°08'247 7.0
2017-Nov-17 06:55N 53°53' E 007°47'3 6.6
2017-Nov-17 06:28N 53°52' E 007°52'3 6.7
2017-Nov-17 06:00N 53°52' E 007°57'4 7.5
2017-Nov-17 05:30N 53°50' E 008°03'4 8.7
2017-Nov-17 05:00N 53°48' E 008°09'510.0
2017-Nov-17 04:30N 53°44' E 008°15'611.1
2017-Nov-17 04:00N 53°41' E 008°22'611.7
2017-Nov-17 03:30N 53°37' E 008°30'510.5
2017-Nov-17 03:01N 53°32' E 008°34'611.1
2017-Nov-17 02:30N 53°27' E 008°30'612.1
2017-Nov-17 02:01N 53°21' E 008°30'611.3
2017-Nov-17 01:30N 53°16' E 008°29'5 9.7
2017-Nov-17 01:00N 53°11' E 008°32'4 8.3
2017-Nov-17 00:31N 53°09' E 008°38'3 6.8
2017-Nov-17 00:00N 53°07' E 008°43'0 0.4
2017-Nov-16 23:30N 53°07' E 008°43'0 0.2
2017-Nov-16 23:00N 53°07' E 008°43'0 0.0
2017-Nov-16 22:30N 53°07' E 008°43'0 0.0
2017-Nov-16 22:00N 53°07' E 008°43'0 0.0
2017-Nov-16 21:30N 53°07' E 008°43'0 0.0
2017-Nov-16 21:00N 53°07' E 008°43'0 0.0
2017-Nov-16 20:30N 53°07' E 008°43'0 0.0
2017-Nov-16 20:00N 53°07' E 008°43'0 0.0
2017-Nov-16 19:30N 53°07' E 008°43'0 0.0
2017-Nov-16 19:00N 53°07' E 008°43'0 0.0
2017-Nov-16 18:30N 53°07' E 008°43'0 0.0
2017-Nov-16 18:00N 53°07' E 008°43'0 0.0
2017-Nov-16 17:30N 53°07' E 008°43'0 0.0
2017-Nov-16 17:00N 53°07' E 008°43'0 0.0
2017-Nov-16 16:30N 53°07' E 008°43'0 0.0
2017-Nov-16 16:00N 53°07' E 008°43'0 0.0
2017-Nov-16 15:30N 53°07' E 008°43'0 0.0
2017-Nov-16 15:00N 53°07' E 008°43'0 0.0
2017-Nov-16 14:30N 53°07' E 008°43'0 0.0
2017-Nov-16 14:00N 53°07' E 008°43'0 0.0
2017-Nov-16 13:30N 53°07' E 008°43'0 0.0
2017-Nov-16 13:00N 53°07' E 008°43'0 0.0
2017-Nov-16 12:30N 53°07' E 008°43'0 0.0
2017-Nov-16 12:00N 53°07' E 008°43'0 0.0
2017-Nov-16 11:30N 53°07' E 008°43'0 0.0
2017-Nov-16 11:00N 53°07' E 008°43'0 0.0
2017-Nov-16 10:30N 53°07' E 008°43'0 0.0
2017-Nov-16 10:00N 53°07' E 008°43'0 0.0
2017-Nov-16 09:30N 53°07' E 008°43'0 0.0
2017-Nov-16 09:00N 53°07' E 008°43'0 0.0
2017-Nov-16 08:30N 53°07' E 008°43'0 0.0
2017-Nov-16 08:00N 53°07' E 008°43'0 0.0
2017-Nov-16 07:30N 53°07' E 008°43'0 0.0
2017-Nov-16 07:00N 53°07' E 008°43'0 0.0
2017-Nov-16 06:30N 53°07' E 008°43'0 0.0
2017-Nov-16 06:00N 53°07' E 008°43'0 0.0
2017-Nov-16 05:30N 53°07' E 008°43'0 0.0
2017-Nov-16 05:00N 53°07' E 008°43'0 0.0
2017-Nov-16 04:30N 53°07' E 008°43'0 0.0
2017-Nov-16 04:00N 53°07' E 008°43'0 0.0
2017-Nov-16 03:30N 53°07' E 008°43'0 0.0
2017-Nov-16 03:00N 53°07' E 008°43'0 0.0
2017-Nov-16 02:30N 53°07' E 008°43'0 0.0
2017-Nov-16 02:00N 53°07' E 008°43'0 0.0
2017-Nov-16 01:30N 53°07' E 008°43'0 0.0
2017-Nov-16 01:00N 53°07' E 008°43'0 0.0
2017-Nov-16 00:30N 53°07' E 008°43'0 0.0
2017-Nov-16 00:00N 53°07' E 008°43'0 0.5
2017-Nov-15 23:30N 53°07' E 008°43'0 0.6
2017-Nov-15 23:01N 53°07' E 008°42'4 7.1
2017-Nov-15 22:30N 53°09' E 008°38'510.0
2017-Nov-15 22:01N 53°12' E 008°31'611.2
2017-Nov-15 21:31N 53°18' E 008°29'611.2
2017-Nov-15 21:00N 53°23' E 008°30'612.1
2017-Nov-15 20:30N 53°29' E 008°30'3 5.7
2017-Nov-15 20:00N 53°31' E 008°34'0 0.0
2017-Nov-15 19:30N 53°31' E 008°34'0 0.0
2017-Nov-15 19:00N 53°31' E 008°34'0 0.1
2017-Nov-15 18:30N 53°31' E 008°34'0 0.2
2017-Nov-15 18:00N 53°31' E 008°34'0 0.2
2017-Nov-15 17:31N 53°31' E 008°34'0 0.0
2017-Nov-15 17:01N 53°31' E 008°34'0 0.0
2017-Nov-15 16:30N 53°31' E 008°34'0 0.0
2017-Nov-15 16:00N 53°31' E 008°34'0 0.0
2017-Nov-15 15:30N 53°31' E 008°34'0 0.0
2017-Nov-15 15:00N 53°31' E 008°34'0 0.0
2017-Nov-15 14:30N 53°31' E 008°34'0 0.0
2017-Nov-15 14:00N 53°31' E 008°34'0 0.0
2017-Nov-15 13:30N 53°31' E 008°34'0 0.0
2017-Nov-15 13:00N 53°31' E 008°34'0 0.0
2017-Nov-15 12:30N 53°31' E 008°34'0 0.0
2017-Nov-15 12:00N 53°31' E 008°34'0 0.0
2017-Nov-15 11:30N 53°31' E 008°34'0 0.0
2017-Nov-15 11:00N 53°31' E 008°34'0 0.0
2017-Nov-15 10:30N 53°31' E 008°34'0 0.1
2017-Nov-15 10:00N 53°31' E 008°34'0 0.2
2017-Nov-15 09:30N 53°31' E 008°34'0 0.0
2017-Nov-15 09:00N 53°31' E 008°34'0 0.1
2017-Nov-15 08:30N 53°31' E 008°34'0 0.0
2017-Nov-15 08:00N 53°31' E 008°34'0 0.1
2017-Nov-15 07:30N 53°31' E 008°34'0 0.1
2017-Nov-15 07:00N 53°31' E 008°34'0 0.1
2017-Nov-15 06:30N 53°31' E 008°34'0 0.0
2017-Nov-15 06:00N 53°31' E 008°34'0 0.2
2017-Nov-15 05:30N 53°31' E 008°34'0 0.2
2017-Nov-15 05:00N 53°31' E 008°34'0 0.0
2017-Nov-15 04:30N 53°31' E 008°34'0 0.0
2017-Nov-15 04:00N 53°31' E 008°34'0 0.0
2017-Nov-15 03:30N 53°31' E 008°34'0 0.0
2017-Nov-15 03:01N 53°31' E 008°34'0 0.1
2017-Nov-15 02:30N 53°31' E 008°34'3 5.5
2017-Nov-15 02:00N 53°34' E 008°32'  

Dump ship's entire track history